createdAt,value
2019-04-28T00:00:36.010Z,24.20
2019-04-28T00:01:36.035Z,22.60
2019-04-28T00:02:35.989Z,23.30
2019-04-28T00:03:35.984Z,23.10
2019-04-28T00:04:35.973Z,24.60
2019-04-28T00:05:35.977Z,24.70
2019-04-28T00:06:35.970Z,23.20
2019-04-28T00:07:35.948Z,23.50
2019-04-28T00:08:35.926Z,23.90
2019-04-28T00:09:35.921Z,23.40
2019-04-28T00:10:35.899Z,23.50
2019-04-28T00:11:35.896Z,23.90
2019-04-28T00:12:35.908Z,23.00
2019-04-28T00:13:35.884Z,24.90
2019-04-28T00:14:35.859Z,24.90
2019-04-28T00:15:35.847Z,23.70
2019-04-28T00:16:35.839Z,24.10
2019-04-28T00:17:35.839Z,25.50
2019-04-28T00:18:35.843Z,23.90
2019-04-28T00:19:35.814Z,26.00
2019-04-28T00:20:35.859Z,22.00
2019-04-28T00:21:35.785Z,23.90
2019-04-28T00:22:35.778Z,26.60
2019-04-28T00:23:35.780Z,27.40
2019-04-28T00:24:35.796Z,24.20
2019-04-28T00:25:35.752Z,25.90
2019-04-28T00:26:35.739Z,22.50
2019-04-28T00:27:35.728Z,24.30
2019-04-28T00:28:35.713Z,23.60
2019-04-28T00:29:40.775Z,24.90
2019-04-28T00:30:36.715Z,26.70
2019-04-28T00:31:35.688Z,25.40
2019-04-28T00:32:35.673Z,26.00
2019-04-28T00:33:35.657Z,23.40
2019-04-28T00:34:35.644Z,23.30
2019-04-28T00:35:35.641Z,27.20
2019-04-28T00:36:35.667Z,24.50
2019-04-28T00:37:35.622Z,25.20
2019-04-28T00:38:35.607Z,24.90
2019-04-28T00:39:35.592Z,26.50
2019-04-28T00:40:35.582Z,26.40
2019-04-28T00:41:35.590Z,27.60
2019-04-28T00:42:35.588Z,23.50
2019-04-28T00:43:35.552Z,26.00
2019-04-28T00:44:35.555Z,23.90
2019-04-28T00:45:35.531Z,27.70
2019-04-28T00:46:35.537Z,27.70
2019-04-28T00:47:35.516Z,28.90
2019-04-28T00:48:35.525Z,25.50
2019-04-28T00:49:35.489Z,23.30
2019-04-28T00:50:35.475Z,26.40
2019-04-28T00:51:35.470Z,25.50
2019-04-28T00:52:35.460Z,26.90
2019-04-28T00:53:35.507Z,25.20
2019-04-28T00:54:35.464Z,25.30
2019-04-28T00:55:35.440Z,27.90
2019-04-28T00:56:35.439Z,27.20
2019-04-28T00:57:35.406Z,26.70
2019-04-28T00:58:35.390Z,26.90
2019-04-28T00:59:35.391Z,24.90
2019-04-28T01:00:35.406Z,27.60
2019-04-28T01:01:35.357Z,24.10
2019-04-28T01:02:35.352Z,23.90
2019-04-28T01:03:35.338Z,22.90
2019-04-28T01:04:35.331Z,24.10
2019-04-28T01:05:35.330Z,25.40
2019-04-28T01:06:35.339Z,24.60
2019-04-28T01:07:35.293Z,23.20
2019-04-28T01:08:35.284Z,25.10
2019-04-28T01:09:35.270Z,24.30
2019-04-28T01:10:35.284Z,24.60
2019-04-28T01:11:35.269Z,26.30
2019-04-28T01:12:35.273Z,23.70
2019-04-28T01:13:35.233Z,23.60
2019-04-28T01:14:35.226Z,21.40
2019-04-28T01:15:35.213Z,22.90
2019-04-28T01:16:35.203Z,24.10
2019-04-28T01:17:35.203Z,24.50
2019-04-28T01:18:35.221Z,24.90
2019-04-28T01:19:35.174Z,24.10
2019-04-28T01:20:35.153Z,25.60
2019-04-28T01:21:35.146Z,24.40
2019-04-28T01:22:35.138Z,24.30
2019-04-28T01:23:35.123Z,23.50
2019-04-28T01:24:35.145Z,23.80
2019-04-28T01:25:35.116Z,22.90
2019-04-28T01:26:35.096Z,24.80
2019-04-28T01:27:35.086Z,23.70
2019-04-28T01:28:35.078Z,24.60
2019-04-28T01:29:35.069Z,24.50
2019-04-28T01:30:35.073Z,23.70
2019-04-28T01:31:35.045Z,24.40
2019-04-28T01:32:35.038Z,22.90
2019-04-28T01:33:35.021Z,23.90
2019-04-28T01:34:35.006Z,23.50
2019-04-28T01:35:35.011Z,27.00
2019-04-28T01:36:35.009Z,26.50
2019-04-28T01:37:34.988Z,26.70
2019-04-28T01:38:34.967Z,25.90
2019-04-28T01:39:34.962Z,27.50
2019-04-28T01:40:34.961Z,28.80
2019-04-28T01:41:34.964Z,27.50
2019-04-28T01:42:34.964Z,22.70
2019-04-28T01:43:34.909Z,27.40
2019-04-28T01:44:34.899Z,25.40
2019-04-28T01:45:34.898Z,24.60
2019-04-28T01:46:34.898Z,26.50
2019-04-28T01:47:34.866Z,25.60
2019-04-28T01:48:34.883Z,28.40
2019-04-28T01:49:34.848Z,31.10
2019-04-28T01:50:34.848Z,27.40
2019-04-28T01:51:34.856Z,26.20
2019-04-28T01:52:34.839Z,29.60
2019-04-28T01:53:34.855Z,26.50
2019-04-28T01:54:34.800Z,26.10
2019-04-28T01:55:34.785Z,28.80
2019-04-28T01:56:34.779Z,28.40
2019-04-28T01:57:34.765Z,28.30
2019-04-28T01:58:34.772Z,30.50
2019-04-28T01:59:34.769Z,31.40
2019-04-28T02:00:34.738Z,32.40
2019-04-28T02:01:34.729Z,28.90
2019-04-28T02:02:34.706Z,26.40
2019-04-28T02:03:34.726Z,29.30
2019-04-28T02:04:34.739Z,30.90
2019-04-28T02:05:34.705Z,28.20
2019-04-28T02:06:34.677Z,31.60
2019-04-28T02:07:34.663Z,29.60
2019-04-28T02:08:34.655Z,32.90
2019-04-28T02:09:34.638Z,28.40
2019-04-28T02:10:34.626Z,28.80
2019-04-28T02:11:34.636Z,30.60
2019-04-28T02:12:34.608Z,28.30
2019-04-28T02:13:34.593Z,30.60
2019-04-28T02:14:34.579Z,30.70
2019-04-28T02:15:34.573Z,33.80
2019-04-28T02:16:34.569Z,31.10
2019-04-28T02:17:34.572Z,32.50
2019-04-28T02:18:34.544Z,31.10
2019-04-28T02:19:34.535Z,37.40
2019-04-28T02:20:34.523Z,34.50
2019-04-28T02:21:34.509Z,34.60
2019-04-28T02:22:34.524Z,33.70
2019-04-28T02:23:34.485Z,35.30
2019-04-28T02:24:34.482Z,33.60
2019-04-28T02:25:34.476Z,33.40
2019-04-28T02:26:34.467Z,34.70
2019-04-28T02:27:34.447Z,35.10
2019-04-28T02:28:34.455Z,31.80
2019-04-28T02:29:34.435Z,32.00
2019-04-28T02:30:45.435Z,33.20
2019-04-28T02:31:35.397Z,34.60
2019-04-28T02:32:34.448Z,32.70
2019-04-28T02:33:34.394Z,32.70
2019-04-28T02:34:34.393Z,31.70
2019-04-28T02:35:34.632Z,34.40
2019-04-28T02:36:34.426Z,30.20
2019-04-28T02:37:34.342Z,32.20
2019-04-28T02:38:34.558Z,29.00
2019-04-28T02:39:34.319Z,29.70
2019-04-28T02:40:34.334Z,35.10
2019-04-28T02:41:34.291Z,35.00
2019-04-28T02:42:34.290Z,29.80
2019-04-28T02:43:34.281Z,30.90
2019-04-28T02:44:35.305Z,34.00
2019-04-28T02:45:34.258Z,31.50
2019-04-28T02:46:34.272Z,29.70
2019-04-28T02:47:34.409Z,27.50
2019-04-28T02:48:34.228Z,27.40
2019-04-28T02:49:34.218Z,26.90
2019-04-28T02:50:34.195Z,24.60
2019-04-28T02:51:34.189Z,27.30
2019-04-28T02:52:34.203Z,26.10
2019-04-28T02:53:34.181Z,26.00
2019-04-28T02:54:34.165Z,24.00
2019-04-28T02:55:34.151Z,24.90
2019-04-28T02:56:34.143Z,27.10
2019-04-28T02:57:34.131Z,27.50
2019-04-28T02:58:34.229Z,26.30
2019-04-28T02:59:34.102Z,26.80
2019-04-28T03:00:34.099Z,26.20
2019-04-28T03:01:34.081Z,24.40
2019-04-28T03:02:34.085Z,28.20
2019-04-28T03:03:34.086Z,24.70
2019-04-28T03:04:34.067Z,27.30
2019-04-28T03:05:34.039Z,28.40
2019-04-28T03:06:34.036Z,23.00
2019-04-28T03:07:34.025Z,30.30
2019-04-28T03:08:34.016Z,24.30
2019-04-28T03:09:34.032Z,23.90
2019-04-28T03:10:34.004Z,26.40
2019-04-28T03:11:33.984Z,24.30
2019-04-28T03:12:33.994Z,24.60
2019-04-28T03:13:33.954Z,25.40
2019-04-28T03:14:33.955Z,25.60
2019-04-28T03:15:33.962Z,23.80
2019-04-28T03:16:33.931Z,22.10
2019-04-28T03:17:33.918Z,27.60
2019-04-28T03:18:33.909Z,26.70
2019-04-28T03:19:34.248Z,22.60
2019-04-28T03:20:33.887Z,28.10
2019-04-28T03:21:33.903Z,25.00
2019-04-28T03:22:33.917Z,26.30
2019-04-28T03:23:33.855Z,29.70
2019-04-28T03:24:33.842Z,28.70
2019-04-28T03:25:33.842Z,27.60
2019-04-28T03:26:33.819Z,27.00
2019-04-28T03:27:33.835Z,25.20
2019-04-28T03:28:33.963Z,30.90
2019-04-28T03:29:33.795Z,25.00
2019-04-28T03:30:34.233Z,27.30
2019-04-28T03:32:01.287Z,23.40
2019-04-28T03:32:45.355Z,27.80
2019-04-28T03:33:41.966Z,25.90
2019-04-28T03:34:36.500Z,25.20
2019-04-28T03:35:33.722Z,23.10
2019-04-28T03:36:33.803Z,22.30
2019-04-28T03:37:33.700Z,22.80
2019-04-28T03:38:33.717Z,25.10
2019-04-28T03:39:33.689Z,23.10
2019-04-28T03:40:33.952Z,23.40
2019-04-28T03:41:33.667Z,23.70
2019-04-28T03:42:33.656Z,21.80
2019-04-28T03:43:33.654Z,22.70
2019-04-28T03:44:34.013Z,20.70
2019-04-28T03:45:33.614Z,23.00
2019-04-28T03:46:33.611Z,24.60
2019-04-28T03:47:33.604Z,27.60
2019-04-28T03:48:33.944Z,25.80
2019-04-28T03:49:33.575Z,21.50
2019-04-28T03:50:33.598Z,25.00
2019-04-28T03:51:33.562Z,27.40
2019-04-28T03:52:33.547Z,24.20
2019-04-28T03:53:33.538Z,24.10
2019-04-28T03:54:33.526Z,24.20
2019-04-28T03:55:34.992Z,25.90
2019-04-28T03:56:33.523Z,27.10
2019-04-28T03:57:33.489Z,25.50
2019-04-28T03:58:33.488Z,28.40
2019-04-28T03:59:33.469Z,23.80
2019-04-28T04:00:33.485Z,25.90
2019-04-28T04:01:33.455Z,27.50
2019-04-28T04:02:33.459Z,27.20
2019-04-28T04:03:33.427Z,26.60
2019-04-28T04:04:33.416Z,26.20
2019-04-28T04:05:33.414Z,27.90
2019-04-28T04:06:33.429Z,28.40
2019-04-28T04:07:33.405Z,23.50
2019-04-28T04:08:33.376Z,26.40
2019-04-28T04:09:33.362Z,27.40
2019-04-28T04:10:33.355Z,23.50
2019-04-28T04:11:33.338Z,26.30
2019-04-28T04:12:33.354Z,24.70
2019-04-28T04:13:33.329Z,24.60
2019-04-28T04:14:33.316Z,22.90
2019-04-28T04:15:33.305Z,26.80
2019-04-28T04:16:33.301Z,27.60
2019-04-28T04:17:33.682Z,27.30
2019-04-28T04:18:33.265Z,23.00
2019-04-28T04:19:33.262Z,27.50
2019-04-28T04:20:33.264Z,27.30
2019-04-28T04:21:33.231Z,26.40
2019-04-28T04:22:33.228Z,25.50
2019-04-28T04:23:33.248Z,24.00
2019-04-28T04:24:33.226Z,26.90
2019-04-28T04:25:33.198Z,24.60
2019-04-28T04:26:33.787Z,23.40
2019-04-28T04:27:33.176Z,23.90
2019-04-28T04:28:33.169Z,30.60
2019-04-28T04:29:33.178Z,27.30
2019-04-28T04:30:33.147Z,26.20
2019-04-28T04:31:33.145Z,20.50
2019-04-28T04:32:33.937Z,25.60
2019-04-28T04:33:33.116Z,23.60
2019-04-28T04:34:33.112Z,25.70
2019-04-28T04:35:33.128Z,27.00
2019-04-28T04:36:33.090Z,23.50
2019-04-28T04:37:33.062Z,24.70
2019-04-28T04:38:33.065Z,25.60
2019-04-28T04:39:33.044Z,27.40
2019-04-28T04:40:33.033Z,26.60
2019-04-28T04:41:33.055Z,24.30
2019-04-28T04:42:33.026Z,29.00
2019-04-28T04:43:33.010Z,28.80
2019-04-28T04:44:32.996Z,30.40
2019-04-28T04:45:32.983Z,29.70
2019-04-28T04:46:32.978Z,25.20
2019-04-28T04:47:33.030Z,27.80
2019-04-28T04:48:32.956Z,29.70
2019-04-28T04:49:32.939Z,28.40
2019-04-28T04:50:32.944Z,31.50
2019-04-28T04:51:32.924Z,28.10
2019-04-28T04:52:32.916Z,29.00
2019-04-28T04:53:32.917Z,30.40
2019-04-28T04:54:36.583Z,29.90
2019-04-28T04:55:32.878Z,29.90
2019-04-28T04:56:32.865Z,29.80
2019-04-28T04:57:32.856Z,34.30
2019-04-28T04:58:32.879Z,30.80
2019-04-28T04:59:32.841Z,29.00
2019-04-28T05:00:32.842Z,29.50
2019-04-28T05:01:32.832Z,29.50
2019-04-28T05:02:33.291Z,30.20
2019-04-28T05:03:32.794Z,30.90
2019-04-28T05:04:32.812Z,33.30
2019-04-28T05:05:32.775Z,32.10
2019-04-28T05:06:32.773Z,30.10
2019-04-28T05:07:32.760Z,31.40
2019-04-28T05:08:32.742Z,32.70
2019-04-28T05:09:32.734Z,32.70
2019-04-28T05:10:32.744Z,28.40
2019-04-28T05:11:32.720Z,31.10
2019-04-28T05:12:32.706Z,28.80
2019-04-28T05:13:32.724Z,36.60
2019-04-28T05:14:32.685Z,32.70
2019-04-28T05:15:32.667Z,30.00
2019-04-28T05:16:32.712Z,30.20
2019-04-28T05:17:32.652Z,30.20
2019-04-28T05:18:32.644Z,32.10
2019-04-28T05:19:32.636Z,28.50
2019-04-28T05:20:32.616Z,34.90
2019-04-28T05:21:33.443Z,36.10
2019-04-28T05:22:32.681Z,34.80
2019-04-28T05:23:32.586Z,32.50
2019-04-28T05:24:32.577Z,32.30
2019-04-28T05:25:32.706Z,30.30
2019-04-28T05:26:32.648Z,34.90
2019-04-28T05:27:32.671Z,30.90
2019-04-28T05:28:36.689Z,32.60
2019-04-28T05:29:33.533Z,32.80
2019-04-28T05:30:34.808Z,32.50
2019-04-28T05:31:33.502Z,31.80
2019-04-28T05:32:42.055Z,30.10
2019-04-28T05:33:34.037Z,35.00
2019-04-28T05:34:32.472Z,35.50
2019-04-28T05:35:32.462Z,31.00
2019-04-28T05:36:41.193Z,34.80
2019-04-28T05:37:33.436Z,32.80
2019-04-28T05:38:32.428Z,30.30
2019-04-28T05:39:32.439Z,33.50
2019-04-28T05:40:32.405Z,33.00
2019-04-28T05:41:32.389Z,35.00
2019-04-28T05:42:32.397Z,30.80
2019-04-28T05:43:32.391Z,36.50
2019-04-28T05:44:32.400Z,32.00
2019-04-28T05:45:32.502Z,32.30
2019-04-28T05:46:32.343Z,31.40
2019-04-28T05:47:32.328Z,34.00
2019-04-28T05:48:32.318Z,30.80
2019-04-28T05:49:32.316Z,34.10
2019-04-28T05:50:32.299Z,32.90
2019-04-28T05:51:32.319Z,28.40
2019-04-28T05:52:32.283Z,33.30
2019-04-28T05:53:32.289Z,36.10
2019-04-28T05:54:32.256Z,35.40
2019-04-28T05:55:32.273Z,31.40
2019-04-28T05:56:32.237Z,32.10
2019-04-28T05:57:32.256Z,27.80
2019-04-28T05:58:32.224Z,33.30
2019-04-28T05:59:32.202Z,31.80
2019-04-28T06:00:32.206Z,33.10
2019-04-28T06:01:32.182Z,30.50
2019-04-28T06:02:32.173Z,35.50
2019-04-28T06:03:32.190Z,32.70
2019-04-28T06:04:32.149Z,36.90
2019-04-28T06:05:32.158Z,34.10
2019-04-28T06:06:32.136Z,29.00
2019-04-28T06:07:32.123Z,30.70
2019-04-28T06:08:32.136Z,28.30
2019-04-28T06:09:32.096Z,31.40
2019-04-28T06:10:32.088Z,31.60
2019-04-28T06:11:32.110Z,33.50
2019-04-28T06:12:32.110Z,31.50
2019-04-28T06:13:32.055Z,31.50
2019-04-28T06:14:32.080Z,32.40
2019-04-28T06:15:32.050Z,33.40
2019-04-28T06:16:32.029Z,29.90
2019-04-28T06:17:32.024Z,34.50
2019-04-28T06:18:32.007Z,32.70
2019-04-28T06:19:31.990Z,29.60
2019-04-28T06:20:32.014Z,33.10
2019-04-28T06:21:31.993Z,33.00
2019-04-28T06:22:31.962Z,35.80
2019-04-28T06:23:31.957Z,33.90
2019-04-28T06:24:31.940Z,35.60
2019-04-28T06:25:31.932Z,31.00
2019-04-28T06:26:31.949Z,38.70
2019-04-28T06:27:32.797Z,27.80
2019-04-28T06:28:31.898Z,33.40
2019-04-28T06:29:31.895Z,29.90
2019-04-28T06:30:31.881Z,30.60
2019-04-28T06:31:31.863Z,41.60
2019-04-28T06:32:31.896Z,31.30
2019-04-28T06:33:31.845Z,33.90
2019-04-28T06:34:31.829Z,31.50
2019-04-28T06:35:31.871Z,31.80
2019-04-28T06:36:31.816Z,31.30
2019-04-28T06:37:31.805Z,29.30
2019-04-28T06:38:31.825Z,32.10
2019-04-28T06:39:31.780Z,32.60
2019-04-28T06:40:31.779Z,31.40
2019-04-28T06:41:31.758Z,32.20
2019-04-28T06:42:31.751Z,33.90
2019-04-28T06:43:31.738Z,27.80
2019-04-28T06:44:31.755Z,29.50
2019-04-28T06:45:31.765Z,32.20
2019-04-28T06:46:31.718Z,32.20
2019-04-28T06:47:31.709Z,29.00
2019-04-28T06:48:31.690Z,27.70
2019-04-28T06:49:31.680Z,28.00
2019-04-28T06:50:31.701Z,28.70
2019-04-28T06:51:31.658Z,28.20
2019-04-28T06:52:31.645Z,33.50
2019-04-28T06:53:31.632Z,31.40
2019-04-28T06:54:31.618Z,33.70
2019-04-28T06:55:31.615Z,35.30
2019-04-28T06:56:31.632Z,34.70
2019-04-28T06:57:31.599Z,34.70
2019-04-28T06:58:31.583Z,33.80
2019-04-28T06:59:31.566Z,32.80
2019-04-28T07:00:31.560Z,35.90
2019-04-28T07:01:31.554Z,33.70
2019-04-28T07:02:31.564Z,35.00
2019-04-28T07:03:31.528Z,37.40
2019-04-28T07:04:31.524Z,35.90
2019-04-28T07:05:31.512Z,36.60
2019-04-28T07:06:31.494Z,37.90
2019-04-28T07:07:31.485Z,32.50
2019-04-28T07:08:31.486Z,37.90
2019-04-28T07:09:31.472Z,36.60
2019-04-28T07:10:31.457Z,35.60
2019-04-28T07:11:31.445Z,41.10
2019-04-28T07:12:31.463Z,38.00
2019-04-28T07:13:31.445Z,39.80
2019-04-28T07:14:31.409Z,39.40
2019-04-28T07:15:31.405Z,32.40
2019-04-28T07:16:31.393Z,30.70
2019-04-28T07:17:31.394Z,34.10
2019-04-28T07:18:31.389Z,27.40
2019-04-28T07:19:33.480Z,33.60
2019-04-28T07:20:31.343Z,33.30
2019-04-28T07:21:31.343Z,34.90
2019-04-28T07:22:31.335Z,33.50
2019-04-28T07:23:31.314Z,35.80
2019-04-28T07:24:31.309Z,32.10
2019-04-28T07:25:31.339Z,34.30
2019-04-28T07:26:31.286Z,32.40
2019-04-28T07:27:31.275Z,39.10
2019-04-28T07:28:31.268Z,34.50
2019-04-28T07:29:31.254Z,31.30
2019-04-28T07:30:31.250Z,32.60
2019-04-28T07:31:31.290Z,31.70
2019-04-28T07:32:31.224Z,31.90
2019-04-28T07:33:36.146Z,37.60
2019-04-28T07:34:32.198Z,38.20
2019-04-28T07:35:31.244Z,33.40
2019-04-28T07:36:31.180Z,34.10
2019-04-28T07:37:31.196Z,36.40
2019-04-28T07:38:31.152Z,34.40
2019-04-28T07:39:31.156Z,39.00
2019-04-28T07:40:31.132Z,34.80
2019-04-28T07:41:31.125Z,32.70
2019-04-28T07:42:31.197Z,39.40
2019-04-28T07:43:31.765Z,39.00
2019-04-28T07:44:31.103Z,32.90
2019-04-28T07:45:31.080Z,29.70
2019-04-28T07:46:31.069Z,35.10
2019-04-28T07:47:31.062Z,31.20
2019-04-28T07:48:31.046Z,32.40
2019-04-28T07:49:31.106Z,39.00
2019-04-28T07:50:31.027Z,29.30
2019-04-28T07:51:31.054Z,33.20
2019-04-28T07:52:31.009Z,35.20
2019-04-28T07:53:30.996Z,38.00
2019-04-28T07:54:30.987Z,37.40
2019-04-28T07:55:31.071Z,34.20
2019-04-28T07:56:31.002Z,40.20
2019-04-28T07:57:30.970Z,34.90
2019-04-28T07:58:30.943Z,31.10
2019-04-28T07:59:30.943Z,30.30
2019-04-28T08:00:30.927Z,33.50
2019-04-28T08:01:31.044Z,34.60
2019-04-28T08:02:30.908Z,36.00
2019-04-28T08:03:30.888Z,34.30
2019-04-28T08:04:30.883Z,39.00
2019-04-28T08:05:30.865Z,37.80
2019-04-28T08:06:30.858Z,44.30
2019-04-28T08:07:30.866Z,38.50
2019-04-28T08:08:30.844Z,35.20
2019-04-28T08:09:30.830Z,47.30
2019-04-28T08:10:30.819Z,38.70
2019-04-28T08:11:30.810Z,44.10
2019-04-28T08:12:30.824Z,39.70
2019-04-28T08:13:30.791Z,46.20
2019-04-28T08:14:30.785Z,44.20
2019-04-28T08:15:30.769Z,35.60
2019-04-28T08:16:30.751Z,40.20
2019-04-28T08:17:30.744Z,40.80
2019-04-28T08:18:31.731Z,36.60
2019-04-28T08:19:30.729Z,32.20
2019-04-28T08:20:30.715Z,33.20
2019-04-28T08:21:30.706Z,39.30
2019-04-28T08:22:30.693Z,39.00
2019-04-28T08:23:30.687Z,37.70
2019-04-28T08:24:30.697Z,40.10
2019-04-28T08:25:30.658Z,44.80
2019-04-28T08:26:30.651Z,40.80
2019-04-28T08:27:30.635Z,44.50
2019-04-28T08:28:30.631Z,40.50
2019-04-28T08:29:30.618Z,35.60
2019-04-28T08:30:30.630Z,46.50
2019-04-28T08:31:30.595Z,47.20
2019-04-28T08:32:30.626Z,51.60
2019-04-28T08:33:33.155Z,37.60
2019-04-28T08:34:30.564Z,39.30
2019-04-28T08:35:30.557Z,38.60
2019-04-28T08:36:30.591Z,33.20
2019-04-28T08:37:30.528Z,34.70
2019-04-28T08:38:30.518Z,33.50
2019-04-28T08:39:30.507Z,36.00
2019-04-28T08:40:30.544Z,39.30
2019-04-28T08:41:30.486Z,35.50
2019-04-28T08:42:30.476Z,35.60
2019-04-28T08:43:30.471Z,36.70
2019-04-28T08:44:30.456Z,46.80
2019-04-28T08:45:30.468Z,39.70
2019-04-28T08:46:30.472Z,37.10
2019-04-28T08:47:30.427Z,33.70
2019-04-28T08:48:30.422Z,38.40
2019-04-28T08:49:30.407Z,37.30
2019-04-28T08:50:30.395Z,35.60
2019-04-28T08:51:30.466Z,33.80
2019-04-28T08:52:30.420Z,31.80
2019-04-28T08:53:30.365Z,34.50
2019-04-28T08:54:30.351Z,36.20
2019-04-28T08:55:30.345Z,34.30
2019-04-28T08:56:30.332Z,33.40
2019-04-28T08:57:30.325Z,42.50
2019-04-28T08:58:30.364Z,50.20
2019-04-28T08:59:30.295Z,39.60
2019-04-28T09:00:30.317Z,48.10
2019-04-28T09:01:30.283Z,38.50
2019-04-28T09:02:30.268Z,40.20
2019-04-28T09:03:30.289Z,38.30
2019-04-28T09:04:30.249Z,42.70
2019-04-28T09:05:30.239Z,36.80
2019-04-28T09:06:30.246Z,36.40
2019-04-28T09:07:30.214Z,33.10
2019-04-28T09:08:30.211Z,33.60
2019-04-28T09:09:30.250Z,33.00
2019-04-28T09:10:30.179Z,34.40
2019-04-28T09:11:30.178Z,33.40
2019-04-28T09:12:30.185Z,40.70
2019-04-28T09:13:30.163Z,34.40
2019-04-28T09:14:30.147Z,31.60
2019-04-28T09:15:30.215Z,34.30
2019-04-28T09:16:30.116Z,30.20
2019-04-28T09:17:30.108Z,37.40
2019-04-28T09:18:30.144Z,31.40
2019-04-28T09:19:30.083Z,31.20
2019-04-28T09:20:30.090Z,28.50
2019-04-28T09:21:30.108Z,26.60
2019-04-28T09:22:30.057Z,31.40
2019-04-28T09:23:30.050Z,30.10
2019-04-28T09:24:30.072Z,32.40
2019-04-28T09:25:30.047Z,32.50
2019-04-28T09:26:30.085Z,33.20
2019-04-28T09:27:30.024Z,35.40
2019-04-28T09:28:29.994Z,30.80
2019-04-28T09:29:30.001Z,33.50
2019-04-28T09:30:29.962Z,31.80
2019-04-28T09:31:29.965Z,28.40
2019-04-28T09:32:29.952Z,26.10
2019-04-28T09:33:30.002Z,25.30
2019-04-28T09:34:29.933Z,30.60
2019-04-28T09:35:29.911Z,29.20
2019-04-28T09:36:29.900Z,27.50
2019-04-28T09:37:29.896Z,26.80
2019-04-28T09:38:29.886Z,26.30
2019-04-28T09:39:29.894Z,24.50
2019-04-28T09:40:29.857Z,22.50
2019-04-28T09:41:29.854Z,22.40
2019-04-28T09:42:29.838Z,22.10
2019-04-28T09:43:29.820Z,20.00
2019-04-28T09:44:29.817Z,21.20
2019-04-28T09:45:29.833Z,24.50
2019-04-28T09:46:29.792Z,21.20
2019-04-28T09:47:29.812Z,25.30
2019-04-28T09:48:29.773Z,24.20
2019-04-28T09:49:29.759Z,20.80
2019-04-28T09:50:29.786Z,18.70
2019-04-28T09:51:29.762Z,20.40
2019-04-28T09:52:29.741Z,22.20
2019-04-28T09:53:29.727Z,19.80
2019-04-28T09:54:29.713Z,17.10
2019-04-28T09:55:29.693Z,21.60
2019-04-28T09:56:29.712Z,22.20
2019-04-28T09:57:29.671Z,22.90
2019-04-28T09:58:29.683Z,15.90
2019-04-28T09:59:29.657Z,15.60
2019-04-28T10:00:29.655Z,16.60
2019-04-28T10:01:29.635Z,17.10
2019-04-28T10:02:29.771Z,19.80
2019-04-28T10:03:29.617Z,17.30
2019-04-28T10:04:41.063Z,21.90
2019-04-28T10:05:30.584Z,20.40
2019-04-28T10:06:29.584Z,19.90
2019-04-28T10:07:29.573Z,16.70
2019-04-28T10:08:29.590Z,18.90
2019-04-28T10:09:29.545Z,19.90
2019-04-28T10:10:29.544Z,21.10
2019-04-28T10:11:30.699Z,20.20
2019-04-28T10:12:29.511Z,17.90
2019-04-28T10:13:29.510Z,20.90
2019-04-28T10:14:29.531Z,17.00
2019-04-28T10:15:29.489Z,17.00
2019-04-28T10:16:29.472Z,19.20
2019-04-28T10:17:29.467Z,20.70
2019-04-28T10:18:29.451Z,20.50
2019-04-28T10:19:29.444Z,19.20
2019-04-28T10:20:29.454Z,18.20
2019-04-28T10:21:29.437Z,18.20
2019-04-28T10:22:29.412Z,16.20
2019-04-28T10:23:29.405Z,18.90
2019-04-28T10:24:29.385Z,22.80
2019-04-28T10:25:29.384Z,23.50
2019-04-28T10:26:29.403Z,21.20
2019-04-28T10:27:29.361Z,20.10
2019-04-28T10:28:29.350Z,20.50
2019-04-28T10:29:29.341Z,18.60
2019-04-28T10:30:29.327Z,23.30
2019-04-28T10:31:29.313Z,20.20
2019-04-28T10:32:29.345Z,24.30
2019-04-28T10:33:29.286Z,17.20
2019-04-28T10:34:29.318Z,18.80
2019-04-28T10:35:29.277Z,18.40
2019-04-28T10:36:29.266Z,22.00
2019-04-28T10:37:29.250Z,21.50
2019-04-28T10:38:29.247Z,15.90
2019-04-28T10:39:29.224Z,16.00
2019-04-28T10:40:29.224Z,14.20
2019-04-28T10:41:29.203Z,16.50
2019-04-28T10:42:29.205Z,16.50
2019-04-28T10:43:29.210Z,17.00
2019-04-28T10:44:29.171Z,15.60
2019-04-28T10:45:29.166Z,16.20
2019-04-28T10:46:29.143Z,16.40
2019-04-28T10:47:29.139Z,15.00
2019-04-28T10:48:29.120Z,14.20
2019-04-28T10:49:29.125Z,13.90
2019-04-28T10:50:29.104Z,10.80
2019-04-28T10:51:29.101Z,12.60
2019-04-28T10:52:29.090Z,13.00
2019-04-28T10:53:29.162Z,11.40
2019-04-28T10:54:29.086Z,13.10
2019-04-28T10:55:29.044Z,13.80
2019-04-28T10:56:29.039Z,11.10
2019-04-28T10:57:29.033Z,12.80
2019-04-28T10:58:29.009Z,13.40
2019-04-28T10:59:29.016Z,12.30
2019-04-28T11:00:29.026Z,11.90
2019-04-28T11:01:28.981Z,14.50
2019-04-28T11:02:28.983Z,13.30
2019-04-28T11:03:28.954Z,14.00
2019-04-28T11:04:28.960Z,13.90
2019-04-28T11:05:29.030Z,16.80
2019-04-28T11:06:29.016Z,15.40
2019-04-28T11:07:28.924Z,15.10
2019-04-28T11:08:28.904Z,16.00
2019-04-28T11:09:30.668Z,14.00
2019-04-28T11:10:28.897Z,15.60
2019-04-28T11:11:28.880Z,12.60
2019-04-28T11:12:28.886Z,13.00
2019-04-28T11:13:28.852Z,13.20
2019-04-28T11:14:28.843Z,14.90
2019-04-28T11:15:28.864Z,14.20
2019-04-28T11:16:28.815Z,16.60
2019-04-28T11:17:28.799Z,13.10
2019-04-28T11:18:28.811Z,14.20
2019-04-28T11:19:28.802Z,15.70
2019-04-28T11:20:28.764Z,12.90
2019-04-28T11:21:28.758Z,14.70
2019-04-28T11:22:28.754Z,16.30
2019-04-28T11:23:28.767Z,16.40
2019-04-28T11:24:28.734Z,14.90
2019-04-28T11:25:28.721Z,14.50
2019-04-28T11:26:28.775Z,14.20
2019-04-28T11:27:28.690Z,14.80
2019-04-28T11:28:28.676Z,14.80
2019-04-28T11:29:28.697Z,14.80
2019-04-28T11:30:28.667Z,10.00
2019-04-28T11:31:28.660Z,12.30
2019-04-28T11:32:28.698Z,10.90
2019-04-28T11:33:28.637Z,9.80
2019-04-28T11:34:28.616Z,12.90
2019-04-28T11:35:28.647Z,14.10
2019-04-28T11:36:28.598Z,13.70
2019-04-28T11:37:28.697Z,14.30
2019-04-28T11:38:28.567Z,10.40
2019-04-28T11:39:28.561Z,12.70
2019-04-28T11:40:28.553Z,13.40
2019-04-28T11:41:29.220Z,10.70
2019-04-28T11:42:28.540Z,12.10
2019-04-28T11:43:28.519Z,11.60
2019-04-28T11:44:28.500Z,11.00
2019-04-28T11:45:28.527Z,13.30
2019-04-28T11:46:28.491Z,12.20
2019-04-28T11:47:28.473Z,10.30
2019-04-28T11:48:28.477Z,11.10
2019-04-28T11:49:28.522Z,8.90
2019-04-28T11:50:28.445Z,8.40
2019-04-28T11:51:28.461Z,9.00
2019-04-28T11:52:28.419Z,8.30
2019-04-28T11:53:28.406Z,8.70
2019-04-28T11:54:28.394Z,10.70
2019-04-28T11:55:28.395Z,10.10
2019-04-28T11:56:40.505Z,8.50
2019-04-28T11:57:29.387Z,11.60
2019-04-28T11:58:28.354Z,8.30
2019-04-28T11:59:28.342Z,8.70
2019-04-28T12:00:28.369Z,9.20
2019-04-28T12:01:28.317Z,8.60
2019-04-28T12:02:28.306Z,10.20
2019-04-28T12:03:28.344Z,9.00
2019-04-28T12:04:28.280Z,8.70
2019-04-28T12:05:34.392Z,10.70
2019-04-28T12:06:29.262Z,8.70
2019-04-28T12:07:28.257Z,10.20
2019-04-28T12:08:28.277Z,9.60
2019-04-28T12:09:28.232Z,9.90
2019-04-28T12:10:28.232Z,10.20
2019-04-28T12:11:28.217Z,9.40
2019-04-28T12:12:28.196Z,11.10
2019-04-28T12:13:28.187Z,10.00
2019-04-28T12:14:28.198Z,9.20
2019-04-28T12:15:28.164Z,8.70
2019-04-28T12:16:28.156Z,8.80
2019-04-28T12:17:28.174Z,9.80
2019-04-28T12:18:28.131Z,9.60
2019-04-28T12:19:28.135Z,9.30
2019-04-28T12:20:28.127Z,7.70
2019-04-28T12:21:28.114Z,8.70
2019-04-28T12:22:28.115Z,8.80
2019-04-28T12:23:28.081Z,8.60
2019-04-28T12:24:28.068Z,9.80
2019-04-28T12:25:28.092Z,9.10
2019-04-28T12:26:28.068Z,7.00
2019-04-28T12:27:28.042Z,10.40
2019-04-28T12:28:28.028Z,9.80
2019-04-28T12:29:28.017Z,9.80
2019-04-28T12:30:28.009Z,8.60
2019-04-28T12:31:28.015Z,10.30
2019-04-28T12:32:27.994Z,8.80
2019-04-28T12:33:27.971Z,10.20
2019-04-28T12:34:27.967Z,8.00
2019-04-28T12:35:27.941Z,8.00
2019-04-28T12:36:27.938Z,9.60
2019-04-28T12:37:27.962Z,7.40
2019-04-28T12:38:27.914Z,8.30
2019-04-28T12:39:27.907Z,8.80
2019-04-28T12:40:27.900Z,7.90
2019-04-28T12:41:27.876Z,8.10
2019-04-28T12:42:27.873Z,8.20
2019-04-28T12:43:27.889Z,8.00
2019-04-28T12:44:27.862Z,7.90
2019-04-28T12:45:34.962Z,8.20
2019-04-28T12:46:28.820Z,8.50
2019-04-28T12:47:27.815Z,7.80
2019-04-28T12:48:27.887Z,7.60
2019-04-28T12:49:27.808Z,8.00
2019-04-28T12:50:27.791Z,8.90
2019-04-28T12:51:27.787Z,9.70
2019-04-28T12:52:27.770Z,7.60
2019-04-28T12:53:27.782Z,7.70
2019-04-28T12:54:27.782Z,8.30